Time;durP1;ratioP1;P1;durP2;ratioP2;P2;SDS_P1;SDS_P2;PMS_P1;PMS_P2;Temp;Humidity;BMP_temperature;BMP_pressure;BME280_temperature;BME280_humidity;BME280_pressure;Samples;Min_cycle;Max_cycle;Signal;HPM_P1;HPM_P2
2022/11/16 00:00:03;;;;;;;6.15;4.63;;;;;;;10.85;100.00;99178.00;686953;28;1138;-62
2022/11/16 00:00:25;;;;;;;6.53;4.50;;;;;;;10.82;100.00;99176.31;689660;28;1165;-62
2022/11/16 00:00:45;;;;;;;7.13;4.50;;;;;;;10.80;100.00;99172.91;689396;28;4546;-62
2022/11/16 00:01:14;;;;;;;7.30;4.63;;;;;;;10.88;100.00;99168.31;689700;28;1329;-62
2022/11/16 00:01:35;;;;;;;6.93;4.70;;;;;;;10.85;100.00;99181.44;689773;28;1463;-62
2022/11/16 00:01:56;;;;;;;6.85;4.65;;;;;;;10.94;100.00;99176.84;689702;28;1482;-62
2022/11/16 00:02:16;;;;;;;6.47;4.70;;;;;;;10.89;100.00;99172.63;687775;28;1128;-62
2022/11/16 00:02:36;;;;;;;6.65;4.78;;;;;;;10.84;100.00;99176.28;689949;28;1220;-62
2022/11/16 00:02:57;;;;;;;6.60;4.60;;;;;;;10.87;100.00;99177.06;689639;28;1195;-62
2022/11/16 00:03:17;;;;;;;6.63;4.50;;;;;;;10.85;100.00;99180.63;689429;28;1270;-62
2022/11/16 00:03:38;;;;;;;7.83;4.70;;;;;;;10.82;100.00;99178.09;689272;28;5000;-62
2022/11/16 00:04:01;;;;;;;8.60;4.88;;;;;;;10.79;100.00;99172.97;686865;28;1495;-62
2022/11/16 00:04:21;;;;;;;6.85;4.68;;;;;;;10.76;100.00;99167.81;686429;28;1092;-62
2022/11/16 00:04:42;;;;;;;6.68;4.60;;;;;;;10.78;100.00;99176.47;687240;28;1257;-61
2022/11/16 00:05:02;;;;;;;7.30;4.87;;;;;;;10.81;100.00;99174.59;685148;28;2229;-62
2022/11/16 00:05:23;;;;;;;7.05;4.63;;;;;;;10.81;100.00;99171.16;685159;28;2138;-62
2022/11/16 00:05:43;;;;;;;6.87;4.67;;;;;;;10.81;100.00;99166.75;687506;28;1220;-62
2022/11/16 00:06:05;;;;;;;6.87;4.80;;;;;;;10.79;100.00;99173.81;689628;28;1250;-62
2022/11/16 00:06:27;;;;;;;6.32;4.90;;;;;;;10.77;100.00;99169.53;689042;28;1113;-62
2022/11/16 00:06:48;;;;;;;6.75;4.40;;;;;;;10.74;100.00;99173.09;688929;28;4285;-62
2022/11/16 00:07:09;;;;;;;6.75;4.45;;;;;;;10.75;100.00;99169.56;688531;28;1488;-62
2022/11/16 00:07:29;;;;;;;6.85;4.97;;;;;;;10.75;100.00;99166.97;688753;28;1228;-62
2022/11/16 00:07:49;;;;;;;7.35;5.10;;;;;;;10.83;100.00;99162.34;687592;28;1488;-62
2022/11/16 00:08:10;;;;;;;7.10;5.00;;;;;;;10.83;100.00;99170.19;687166;28;1274;-62
2022/11/16 00:08:33;;;;;;;6.43;4.80;;;;;;;10.82;100.00;99176.31;687471;28;1333;-62
2022/11/16 00:09:36;;;;;;;6.85;4.70;;;;;;;10.96;100.00;99162.00;686831;28;1138;-61
2022/11/16 00:09:56;;;;;;;6.65;4.57;;;;;;;11.01;100.00;99160.09;686834;28;4486;-61
2022/11/16 00:10:17;;;;;;;7.20;4.80;;;;;;;11.04;100.00;99173.06;686515;28;1325;-62
2022/11/16 00:10:37;;;;;;;7.63;4.95;;;;;;;10.97;100.00;99163.72;687197;28;1969;-62
2022/11/16 00:11:05;;;;;;;6.33;4.87;;;;;;;10.90;100.00;99169.13;684692;28;1362;-62
2022/11/16 00:11:25;;;;;;;6.55;4.80;;;;;;;10.89;100.00;99170.00;684191;28;1067;-62
2022/11/16 00:11:48;;;;;;;7.00;4.77;;;;;;;10.90;100.00;99163.88;684297;28;1309;-62
2022/11/16 00:12:10;;;;;;;8.02;4.60;;;;;;;10.98;100.00;99170.63;684021;28;1482;-62
2022/11/16 00:12:30;;;;;;;7.18;4.88;;;;;;;10.99;100.00;99169.75;685898;28;1333;-62
2022/11/16 00:12:51;;;;;;;6.50;4.57;;;;;;;10.93;100.00;99164.72;686787;28;4362;-62
2022/11/16 00:13:11;;;;;;;6.68;4.80;;;;;;;10.97;100.00;99168.94;687150;28;1256;-62
2022/11/16 00:13:33;;;;;;;7.90;5.17;;;;;;;10.99;100.00;99165.34;687246;28;1416;-62
2022/11/16 00:13:53;;;;;;;7.40;5.00;;;;;;;10.96;100.00;99159.38;687055;28;1237;-61
2022/11/16 00:14:14;;;;;;;7.00;4.60;;;;;;;10.94;100.00;99167.28;687145;28;1211;-61
2022/11/16 00:14:35;;;;;;;7.83;4.60;;;;;;;10.90;100.00;99166.50;687365;28;1422;-62
2022/11/16 00:14:55;;;;;;;7.70;4.70;;;;;;;10.90;100.00;99161.28;687407;28;1429;-62
2022/11/16 00:15:15;;;;;;;7.05;4.85;;;;;;;10.89;100.00;99164.78;686938;28;1414;-62
2022/11/16 00:15:36;;;;;;;6.33;4.60;;;;;;;10.97;100.00;99161.94;686786;28;4587;-62
2022/11/16 00:15:56;;;;;;;6.72;4.45;;;;;;;10.94;100.00;99158.56;686065;28;1927;-62
2022/11/16 00:16:17;;;;;;;6.63;4.67;;;;;;;11.00;100.00;99164.47;686605;28;1119;-62
2022/11/16 00:16:37;;;;;;;6.43;4.50;;;;;;;11.01;100.00;99162.72;686976;28;1085;-62
2022/11/16 00:16:59;;;;;;;6.83;4.50;;;;;;;11.05;100.00;99161.72;687275;28;1246;-62
2022/11/16 00:17:19;;;;;;;6.30;4.40;;;;;;;10.99;100.00;99159.28;686302;28;1063;-62
2022/11/16 00:17:39;;;;;;;6.83;4.53;;;;;;;10.96;100.00;99162.00;687391;28;1382;-62
2022/11/16 00:18:00;;;;;;;6.43;4.53;;;;;;;11.04;100.00;99157.38;686811;28;1199;-62
2022/11/16 00:18:20;;;;;;;7.05;4.53;;;;;;;11.06;100.00;99160.78;686815;28;978;-61
2022/11/16 00:18:41;;;;;;;7.07;4.73;;;;;;;11.08;100.00;99159.84;686942;28;4470;-61
2022/11/16 00:19:04;;;;;;;6.30;4.75;;;;;;;10.97;100.00;99159.31;687623;28;1120;-61
2022/11/16 00:19:25;;;;;;;7.68;5.00;;;;;;;10.95;100.00;99157.66;687085;28;1060;-61
2022/11/16 00:19:46;;;;;;;7.25;5.03;;;;;;;10.96;100.00;99154.16;687430;28;1274;-62
2022/11/16 00:20:07;;;;;;;7.03;4.93;;;;;;;10.99;100.00;99164.50;686645;28;3763;-61
2022/11/16 00:20:27;;;;;;;7.50;5.00;;;;;;;10.90;100.00;99160.44;686508;28;1263;-61
2022/11/16 00:20:48;;;;;;;6.60;4.72;;;;;;;10.90;100.00;99152.59;687439;28;1199;-62
2022/11/16 00:21:09;;;;;;;6.15;4.45;;;;;;;10.93;100.00;99154.25;686019;28;1324;-62
2022/11/16 00:21:30;;;;;;;6.53;4.47;;;;;;;10.89;100.00;99153.47;687579;28;1239;-61
2022/11/16 00:21:51;;;;;;;6.07;4.40;;;;;;;10.86;100.00;99156.19;687001;28;4409;-61
2022/11/16 00:22:12;;;;;;;6.28;4.68;;;;;;;10.82;100.00;99151.97;686424;28;1238;-62
2022/11/16 00:22:32;;;;;;;7.25;4.82;;;;;;;10.84;100.00;99156.25;686828;28;1230;-62
2022/11/16 00:22:52;;;;;;;7.63;4.63;;;;;;;10.88;100.00;99147.41;687432;28;1369;-62
2022/11/16 00:23:13;;;;;;;7.53;4.77;;;;;;;10.88;100.00;99147.41;687222;28;1348;-62
2022/11/16 00:23:37;;;;;;;6.88;4.80;;;;;;;10.84;100.00;99155.38;687272;28;1409;-62
2022/11/16 00:23:58;;;;;;;6.95;4.63;;;;;;;10.78;100.00;99153.78;687312;28;1236;-62
2022/11/16 00:24:20;;;;;;;6.78;4.65;;;;;;;10.76;100.00;99152.13;685853;28;1187;-62
2022/11/16 00:24:40;;;;;;;7.28;4.80;;;;;;;10.83;100.00;99149.28;686761;28;4390;-62
2022/11/16 00:25:01;;;;;;;6.65;4.65;;;;;;;10.93;100.00;99149.03;687338;28;1274;-62
2022/11/16 00:25:21;;;;;;;6.50;4.63;;;;;;;10.94;100.00;99148.97;687046;28;1024;-62
2022/11/16 00:25:42;;;;;;;7.33;4.93;;;;;;;10.88;100.00;99149.13;687477;28;984;-61
2022/11/16 00:26:08;;;;;;;7.68;4.72;;;;;;;10.90;100.00;99150.81;689886;28;1369;-62
2022/11/16 00:26:29;;;;;;;6.70;4.53;;;;;;;10.89;100.00;99151.72;688938;28;1060;-62
2022/11/16 00:26:51;;;;;;;6.38;4.60;;;;;;;10.94;100.00;99148.97;689625;28;1318;-62
2022/11/16 00:27:12;;;;;;;6.70;4.82;;;;;;;10.99;100.00;99154.06;686782;28;1384;-62
2022/11/16 00:27:32;;;;;;;6.93;4.90;;;;;;;10.97;100.00;99150.63;683979;28;1462;-62
2022/11/16 00:27:52;;;;;;;6.97;4.70;;;;;;;10.92;100.00;99152.53;683814;28;4356;-62
2022/11/16 00:28:13;;;;;;;6.53;4.70;;;;;;;10.99;100.00;99154.06;684174;28;1283;-62
2022/11/16 00:28:34;;;;;;;7.50;4.93;;;;;;;11.00;100.00;99151.38;684445;28;1275;-62
2022/11/16 00:28:54;;;;;;;6.63;5.07;;;;;;;10.95;100.00;99147.19;684734;28;1386;-62
2022/11/16 00:29:18;;;;;;;7.72;5.22;;;;;;;10.90;100.00;99150.81;686273;28;1433;-63
2022/11/16 00:29:38;;;;;;;7.82;5.20;;;;;;;10.98;100.00;99152.34;689742;28;2006;-62
2022/11/16 00:29:59;;;;;;;6.83;5.00;;;;;;;10.95;100.00;99147.19;690041;28;1360;-62
2022/11/16 00:30:19;;;;;;;7.10;5.05;;;;;;;10.98;100.00;99154.94;686631;28;1083;-61
2022/11/16 00:30:39;;;;;;;7.13;5.13;;;;;;;10.99;100.00;99148.81;685837;28;4411;-62
2022/11/16 00:31:01;;;;;;;7.10;5.13;;;;;;;10.93;100.00;99154.25;686409;28;1281;-62
2022/11/16 00:31:23;;;;;;;6.55;4.80;;;;;;;10.86;100.00;99149.19;686761;28;1103;-62
2022/11/16 00:31:44;;;;;;;6.90;5.20;;;;;;;10.84;100.00;99148.41;686871;28;1266;-62
2022/11/16 00:32:04;;;;;;;7.20;5.00;;;;;;;10.84;100.00;99151.00;686610;28;1251;-61
2022/11/16 00:32:25;;;;;;;6.90;5.00;;;;;;;10.85;100.00;99157.94;686639;28;1048;-62
2022/11/16 00:32:45;;;;;;;6.77;4.90;;;;;;;10.85;100.00;99155.31;686935;28;1282;-62
2022/11/16 00:33:06;;;;;;;7.23;5.00;;;;;;;10.89;100.00;99151.72;686626;28;1246;-62
2022/11/16 00:33:28;;;;;;;6.93;5.03;;;;;;;10.83;100.00;99148.44;684264;28;1430;-62
2022/11/16 00:33:49;;;;;;;6.97;5.20;;;;;;;10.81;100.00;99155.47;684061;28;4446;-62
2022/11/16 00:34:10;;;;;;;7.53;4.85;;;;;;;10.81;100.00;99158.06;684588;28;1395;-62
2022/11/16 00:34:30;;;;;;;7.03;4.85;;;;;;;10.86;100.00;99153.56;684354;28;1426;-62
2022/11/16 00:34:51;;;;;;;6.67;4.90;;;;;;;10.84;100.00;99150.13;684225;28;1325;-62
2022/11/16 00:35:11;;;;;;;6.53;5.10;;;;;;;10.83;100.00;99156.28;684381;28;1296;-62
2022/11/16 00:35:37;;;;;;;6.87;5.07;;;;;;;10.85;100.00;99157.09;687310;28;1262;-62
2022/11/16 00:36:00;;;;;;;7.00;4.85;;;;;;;10.80;100.00;99157.22;685877;28;1451;-62
2022/11/16 00:36:20;;;;;;;7.00;4.75;;;;;;;10.77;100.00;99157.28;685774;28;1419;-62
2022/11/16 00:36:42;;;;;;;7.10;5.00;;;;;;;10.83;100.00;99159.75;684662;28;4353;-62
2022/11/16 00:37:02;;;;;;;8.30;5.10;;;;;;;10.80;100.00;99157.22;688037;28;1262;-62
2022/11/16 00:37:22;;;;;;;7.17;4.80;;;;;;;10.82;100.00;99162.41;689195;28;1088;-62
2022/11/16 00:37:43;;;;;;;7.53;5.00;;;;;;;10.89;100.00;99154.31;685918;28;1224;-62
2022/11/16 00:38:03;;;;;;;6.90;4.88;;;;;;;10.94;100.00;99156.81;687293;28;1328;-61
2022/11/16 00:38:23;;;;;;;6.70;4.70;;;;;;;10.97;100.00;99154.09;686765;28;1064;-63
2022/11/16 00:38:44;;;;;;;6.73;4.93;;;;;;;10.93;100.00;99155.09;686637;28;5018;-62
2022/11/16 00:39:09;;;;;;;6.95;5.07;;;;;;;10.95;100.00;99153.31;686836;28;1327;-61
2022/11/16 00:39:30;;;;;;;7.10;5.03;;;;;;;11.01;100.00;99154.88;686262;28;1414;-62
2022/11/16 00:39:50;;;;;;;7.00;5.00;;;;;;;10.93;100.00;99154.25;686588;28;4534;-62
2022/11/16 00:40:11;;;;;;;7.60;4.80;;;;;;;10.90;100.00;99152.59;686847;28;1246;-62
2022/11/16 00:40:32;;;;;;;7.47;4.73;;;;;;;10.83;100.00;99146.69;684538;28;1457;-62
2022/11/16 00:40:52;;;;;;;7.22;5.00;;;;;;;10.87;100.00;99150.91;683783;28;1232;-62
2022/11/16 00:41:12;;;;;;;6.27;4.93;;;;;;;10.81;100.00;99156.31;682091;28;1315;-62
2022/11/16 00:41:33;;;;;;;7.40;4.93;;;;;;;10.88;100.00;99154.38;682255;28;1270;-62
2022/11/16 00:41:53;;;;;;;7.63;4.87;;;;;;;10.86;100.00;99149.19;681843;28;1281;-62
2022/11/16 00:42:13;;;;;;;7.40;5.20;;;;;;;10.87;100.00;99153.53;681536;28;1244;-62
2022/11/16 00:42:34;;;;;;;7.07;4.80;;;;;;;10.97;100.00;99148.03;681888;28;1412;-62
2022/11/16 00:42:54;;;;;;;6.47;4.80;;;;;;;10.99;100.00;99148.81;683577;28;4475;-62
2022/11/16 00:43:15;;;;;;;7.23;5.00;;;;;;;11.02;100.00;99153.94;686678;28;1088;-62
2022/11/16 00:43:36;;;;;;;6.60;4.90;;;;;;;10.98;100.00;99147.09;687032;28;1572;-62
2022/11/16 00:43:56;;;;;;;6.93;4.88;;;;;;;11.00;100.00;99148.78;687592;28;1127;-62
2022/11/16 00:44:17;;;;;;;7.93;5.57;;;;;;;10.95;100.00;99145.47;686996;28;1175;-62
2022/11/16 00:44:37;;;;;;;6.72;4.88;;;;;;;10.92;100.00;99145.53;687726;28;1263;-62
2022/11/16 00:44:58;;;;;;;6.50;4.82;;;;;;;10.92;100.00;99147.31;684130;28;1296;-62
2022/11/16 00:45:18;;;;;;;7.13;5.17;;;;;;;10.93;100.00;99149.03;681144;28;1113;-62
2022/11/16 00:45:41;;;;;;;7.43;5.20;;;;;;;10.89;100.00;99149.09;681422;28;4364;-62
2022/11/16 00:46:02;;;;;;;7.22;4.80;;;;;;;10.94;100.00;99145.47;684479;28;1407;-62
2022/11/16 00:46:23;;;;;;;6.50;4.95;;;;;;;10.97;100.00;99145.41;683861;28;1116;-62
2022/11/16 00:46:43;;;;;;;6.77;4.90;;;;;;;10.99;100.00;99148.81;684091;28;1270;-63
2022/11/16 00:47:04;;;;;;;7.00;4.85;;;;;;;10.95;100.00;99149.81;687395;28;1271;-62
2022/11/16 00:47:25;;;;;;;7.17;4.93;;;;;;;11.00;100.00;99145.31;689496;28;1178;-61
2022/11/16 00:47:45;;;;;;;6.68;4.90;;;;;;;10.95;100.00;99142.84;687246;28;1491;-62
2022/11/16 00:48:06;;;;;;;7.67;4.97;;;;;;;10.89;100.00;99149.09;687120;28;1235;-62
2022/11/16 00:48:26;;;;;;;6.50;4.67;;;;;;;10.84;100.00;99153.63;686901;28;1135;-62
2022/11/16 00:48:47;;;;;;;6.25;4.70;;;;;;;10.83;100.00;99141.44;686616;28;4472;-61
2022/11/16 00:49:07;;;;;;;6.97;5.00;;;;;;;10.92;100.00;99144.69;686603;28;1362;-62
2022/11/16 00:49:28;;;;;;;8.70;4.97;;;;;;;11.00;100.00;99154.00;687136;28;1283;-62
2022/11/16 00:49:48;;;;;;;7.68;5.00;;;;;;;10.95;100.00;99145.47;688090;28;1215;-62
2022/11/16 00:50:09;;;;;;;6.53;5.00;;;;;;;10.91;100.00;99149.06;687915;28;1238;-62
2022/11/16 00:50:29;;;;;;;6.45;4.47;;;;;;;10.95;100.00;99148.06;687054;28;1918;-62
2022/11/16 00:50:50;;;;;;;6.18;4.70;;;;;;;10.99;100.00;99148.81;684919;28;1266;-62
2022/11/16 00:51:12;;;;;;;6.30;4.93;;;;;;;10.95;100.00;99148.06;684559;28;1664;-62
2022/11/16 00:51:34;;;;;;;6.50;4.90;;;;;;;10.96;100.00;99147.16;685158;28;1355;-62
2022/11/16 00:51:55;;;;;;;7.15;4.88;;;;;;;10.98;100.00;99152.34;682713;28;4265;-62
2022/11/16 00:52:15;;;;;;;6.10;4.80;;;;;;;11.00;100.00;99147.94;683904;28;1438;-62
2022/11/16 00:52:36;;;;;;;7.17;4.87;;;;;;;10.97;100.00;99146.25;683931;28;1581;-62
2022/11/16 00:52:58;;;;;;;7.27;5.13;;;;;;;11.00;100.00;99145.31;683663;28;1218;-62
2022/11/16 00:53:20;;;;;;;7.10;5.35;;;;;;;10.93;100.00;99138.56;684714;28;1108;-62
2022/11/16 00:53:40;;;;;;;7.45;5.10;;;;;;;10.94;100.00;99142.88;684544;28;1340;-62
2022/11/16 00:54:01;;;;;;;7.13;5.13;;;;;;;10.87;100.00;99140.44;683652;28;1286;-62
2022/11/16 00:54:22;;;;;;;9.82;5.35;;;;;;;10.85;100.00;99141.41;681299;28;1251;-62
2022/11/16 00:54:43;;;;;;;9.35;5.13;;;;;;;10.94;100.00;99140.25;680834;28;4422;-62
2022/11/16 00:55:04;;;;;;;6.47;4.53;;;;;;;10.87;100.00;99144.84;682464;28;1027;-62
2022/11/16 00:55:25;;;;;;;6.80;4.97;;;;;;;10.80;100.00;99141.56;684397;28;1130;-62
2022/11/16 00:55:46;;;;;;;7.13;5.30;;;;;;;10.76;100.00;99147.78;685021;28;1287;-62
2022/11/16 00:56:08;;;;;;;7.30;4.85;;;;;;;10.82;100.00;99147.56;685235;28;1329;-62
2022/11/16 00:56:36;;;;;;;7.25;5.10;;;;;;;10.83;100.00;99144.06;685436;28;1342;-62
2022/11/16 00:56:57;;;;;;;7.40;4.82;;;;;;;10.81;100.00;99143.22;687526;28;1152;-62
2022/11/16 00:57:17;;;;;;;7.97;4.60;;;;;;;10.83;100.00;99144.06;684608;28;1477;-62
2022/11/16 00:57:38;;;;;;;6.80;4.72;;;;;;;10.84;100.00;99140.56;684178;28;4459;-61
2022/11/16 00:57:59;;;;;;;6.63;4.72;;;;;;;10.94;100.00;99150.72;684798;28;1345;-62
2022/11/16 00:58:23;;;;;;;6.17;4.60;;;;;;;10.94;100.00;99142.88;684749;28;1406;-62
2022/11/16 00:58:50;;;;;;;6.95;4.72;;;;;;;10.93;100.00;99139.41;684067;28;1560;-62
2022/11/16 00:59:10;;;;;;;7.07;4.70;;;;;;;10.86;100.00;99137.88;684524;28;1291;-63
2022/11/16 00:59:31;;;;;;;6.20;4.82;;;;;;;10.83;100.00;99141.44;681667;28;1439;-62
2022/11/16 00:59:52;;;;;;;6.35;4.82;;;;;;;10.85;100.00;99144.00;682363;28;1295;-62
2022/11/16 01:00:13;;;;;;;6.47;4.60;;;;;;;10.88;100.00;99142.19;682003;28;1198;-62
2022/11/16 01:00:33;;;;;;;5.95;4.57;;;;;;;10.84;100.00;99137.06;682591;28;1445;-62
2022/11/16 01:00:55;;;;;;;6.40;4.78;;;;;;;10.81;100.00;99142.38;684588;28;4503;-62
2022/11/16 01:01:18;;;;;;;7.03;4.88;;;;;;;10.85;100.00;99137.00;687155;28;1227;-62
2022/11/16 01:01:38;;;;;;;6.13;4.70;;;;;;;10.81;100.00;99139.78;684449;28;1529;-62
2022/11/16 01:01:59;;;;;;;6.80;4.65;;;;;;;10.83;100.00;99149.28;684829;28;1315;-62
2022/11/16 01:02:20;;;;;;;7.17;4.57;;;;;;;10.90;100.00;99144.75;684744;28;1187;-62
2022/11/16 01:02:40;;;;;;;6.60;4.72;;;;;;;10.87;100.00;99139.59;684893;28;1302;-62
2022/11/16 01:03:01;;;;;;;7.03;4.60;;;;;;;10.88;100.00;99147.41;685016;28;1288;-62
2022/11/16 01:03:21;;;;;;;6.93;4.80;;;;;;;10.87;100.00;99144.84;684649;28;1219;-62
2022/11/16 01:03:41;;;;;;;6.90;4.97;;;;;;;10.88;100.00;99142.19;684402;28;4382;-62
2022/11/16 01:04:02;;;;;;;7.17;4.77;;;;;;;10.89;100.00;99140.41;687519;28;1301;-62
2022/11/16 01:04:22;;;;;;;6.70;4.78;;;;;;;10.95;100.00;99135.00;684050;28;1192;-63
2022/11/16 01:04:43;;;;;;;6.73;4.83;;;;;;;10.98;100.00;99136.63;685227;28;1302;-62
2022/11/16 01:05:03;;;;;;;6.85;4.95;;;;;;;10.93;100.00;99139.41;684848;28;1252;-62
2022/11/16 01:05:24;;;;;;;6.25;4.60;;;;;;;10.95;100.00;99136.75;684840;28;1069;-62
2022/11/16 01:05:44;;;;;;;7.07;4.93;;;;;;;10.92;100.00;99136.84;682086;28;1315;-62
2022/11/16 01:06:10;;;;;;;6.60;4.95;;;;;;;10.87;100.00;99143.06;682125;29;1304;-62
2022/11/16 01:06:30;;;;;;;6.20;4.55;;;;;;;10.83;100.00;99138.00;683967;28;1327;-62
2022/11/16 01:06:53;;;;;;;6.93;4.93;;;;;;;10.85;100.00;99138.78;682784;28;4585;-62
2022/11/16 01:07:13;;;;;;;6.97;5.07;;;;;;;10.94;100.00;99138.50;684615;28;1434;-62
2022/11/16 01:07:36;;;;;;;6.28;4.40;;;;;;;10.99;100.00;99133.97;686336;28;1378;-62
2022/11/16 01:07:57;;;;;;;6.32;4.60;;;;;;;11.01;100.00;99131.34;687086;28;1321;-62
2022/11/16 01:08:17;;;;;;;6.97;4.90;;;;;;;11.01;100.00;99136.56;687275;28;1178;-62
2022/11/16 01:08:39;;;;;;;7.37;5.07;;;;;;;11.00;100.00;99130.47;687617;28;1302;-62
2022/11/16 01:09:00;;;;;;;7.30;5.10;;;;;;;10.98;100.00;99128.78;687634;28;1563;-62
2022/11/16 01:09:21;;;;;;;6.90;4.95;;;;;;;10.91;100.00;99130.78;684227;28;2046;-62
2022/11/16 01:09:41;;;;;;;7.13;5.00;;;;;;;10.86;100.00;99133.50;683230;28;4500;-62
2022/11/16 01:10:06;;;;;;;6.18;4.90;;;;;;;10.89;100.00;99129.94;678148;29;1359;-62
2022/11/16 01:10:27;;;;;;;6.10;4.80;;;;;;;10.85;100.00;99131.78;682066;28;1931;-62
2022/11/16 01:10:47;;;;;;;6.65;5.00;;;;;;;10.86;100.00;99128.28;679872;29;1224;-62
2022/11/16 01:12:11;;;;;;;7.10;5.10;;;;;;;10.86;100.00;99132.66;681739;28;1250;-62
2022/11/16 01:12:31;;;;;;;6.55;4.60;;;;;;;10.93;100.00;99128.09;684763;28;1343;-64
2022/11/16 01:12:53;;;;;;;7.00;4.80;;;;;;;10.87;100.00;99132.63;686990;28;4388;-62
2022/11/16 01:13:14;;;;;;;6.63;4.78;;;;;;;10.84;100.00;99130.09;687033;28;1259;-62
2022/11/16 01:13:37;;;;;;;6.28;4.70;;;;;;;10.81;100.00;99130.16;687222;28;1443;-62
2022/11/16 01:14:00;;;;;;;7.28;4.88;;;;;;;10.77;100.00;99132.94;684842;28;1361;-62
2022/11/16 01:14:20;;;;;;;6.40;4.85;;;;;;;10.74;100.00;99128.66;683781;28;1092;-62
2022/11/16 01:14:43;;;;;;;6.72;5.15;;;;;;;10.79;100.00;99132.00;684751;28;1247;-63
2022/11/16 01:15:07;;;;;;;8.82;5.18;;;;;;;10.74;100.00;99139.09;682224;28;1364;-63
2022/11/16 01:15:28;;;;;;;7.22;4.40;;;;;;;10.71;100.00;99128.75;682156;28;1197;-63
2022/11/16 01:15:48;;;;;;;6.40;4.80;;;;;;;10.81;100.00;99143.22;680199;29;4473;-63
2022/11/16 01:16:13;;;;;;;6.17;4.73;;;;;;;10.82;100.00;99131.88;679372;29;1418;-63
2022/11/16 01:16:33;;;;;;;6.60;5.28;;;;;;;10.82;100.00;99133.66;678850;29;1312;-62
2022/11/16 01:16:54;;;;;;;6.60;4.97;;;;;;;10.76;100.00;99136.44;674240;29;1367;-61
2022/11/16 01:17:14;;;;;;;7.00;5.03;;;;;;;10.76;100.00;99131.22;676544;29;1330;-62
2022/11/16 01:17:39;;;;;;;6.63;4.90;;;;;;;10.74;100.00;99133.88;677769;29;1390;-63
2022/11/16 01:17:59;;;;;;;7.28;4.90;;;;;;;10.80;100.00;99140.66;678174;29;1197;-62
2022/11/16 01:18:20;;;;;;;6.43;4.67;;;;;;;10.82;100.00;99125.81;676293;29;1257;-63
2022/11/16 01:18:40;;;;;;;6.28;4.68;;;;;;;10.82;100.00;99137.13;678064;28;4382;-62
2022/11/16 01:19:01;;;;;;;6.07;4.60;;;;;;;10.82;100.00;99126.66;685471;28;1270;-62
2022/11/16 01:19:21;;;;;;;6.88;5.05;;;;;;;10.88;100.00;99138.69;684404;28;1256;-62
2022/11/16 01:19:42;;;;;;;7.57;4.80;;;;;;;10.86;100.00;99133.50;685118;28;1337;-62
2022/11/16 01:20:04;;;;;;;7.13;4.60;;;;;;;10.82;100.00;99126.66;684613;28;1255;-62
2022/11/16 01:20:28;;;;;;;8.30;5.00;;;;;;;10.89;100.00;99132.56;682539;28;1149;-62
2022/11/16 01:20:48;;;;;;;8.07;5.20;;;;;;;10.96;100.00;99133.22;682273;28;1303;-62
2022/11/16 01:21:09;;;;;;;8.23;5.00;;;;;;;10.94;100.00;99124.56;682408;28;1255;-63
2022/11/16 01:21:29;;;;;;;6.45;4.90;;;;;;;10.97;100.00;99127.09;682167;29;1512;-62
2022/11/16 01:21:49;;;;;;;6.30;4.83;;;;;;;10.92;100.00;99119.38;682508;28;4440;-62
2022/11/16 01:22:10;;;;;;;6.82;4.97;;;;;;;10.94;100.00;99124.56;684808;28;1587;-62
2022/11/16 01:22:31;;;;;;;7.20;5.27;;;;;;;10.96;100.00;99125.38;687113;28;1319;-62
2022/11/16 01:22:52;;;;;;;6.72;4.95;;;;;;;10.94;100.00;99124.56;684755;28;1302;-62
2022/11/16 01:23:12;;;;;;;6.60;4.78;;;;;;;10.89;100.00;99122.94;681482;28;2130;-62
2022/11/16 01:23:33;;;;;;;6.80;4.87;;;;;;;10.86;100.00;99127.44;684783;28;1544;-62
2022/11/16 01:23:54;;;;;;;6.68;4.80;;;;;;;10.82;100.00;99139.72;681932;28;1419;-61
2022/11/16 01:24:15;;;;;;;8.07;4.90;;;;;;;10.77;100.00;99128.53;679338;29;2049;-62
2022/11/16 01:24:35;;;;;;;6.93;4.83;;;;;;;10.76;100.00;99131.22;681942;29;1299;-62
2022/11/16 01:24:55;;;;;;;6.35;4.97;;;;;;;10.83;100.00;99127.53;681712;28;4275;-62
2022/11/16 01:25:16;;;;;;;7.37;5.23;;;;;;;10.84;100.00;99135.31;681613;28;1515;-62
2022/11/16 01:25:37;;;;;;;7.28;5.20;;;;;;;10.79;100.00;99134.59;682215;28;1152;-61
2022/11/16 01:26:00;;;;;;;7.30;5.20;;;;;;;10.76;100.00;99132.09;684971;28;1151;-62
2022/11/16 01:26:21;;;;;;;6.53;5.05;;;;;;;10.77;100.00;99133.78;684864;28;1425;-61
2022/11/16 01:26:41;;;;;;;7.35;5.13;;;;;;;10.87;100.00;99134.38;686768;28;1116;-61
2022/11/16 01:27:01;;;;;;;8.57;5.20;;;;;;;10.82;100.00;99131.88;684742;28;1291;-61
2022/11/16 01:27:25;;;;;;;7.68;4.85;;;;;;;10.81;100.00;99130.16;684446;28;1847;-61
2022/11/16 01:27:46;;;;;;;7.75;5.18;;;;;;;10.82;100.00;99133.66;682666;28;4338;-60
2022/11/16 01:28:13;;;;;;;7.20;4.93;;;;;;;10.80;100.00;99131.09;683383;28;1397;-60
2022/11/16 01:28:41;;;;;;;6.82;4.78;;;;;;;10.78;100.00;99130.25;684306;28;1501;-61
2022/11/16 01:29:03;;;;;;;6.38;5.05;;;;;;;10.72;100.00;99133.06;684472;28;1591;-61
2022/11/16 01:29:29;;;;;;;7.60;5.32;;;;;;;10.76;100.00;99132.09;681918;28;1246;-61
2022/11/16 01:29:52;;;;;;;6.90;5.10;;;;;;;10.73;100.00;99137.41;684857;28;1273;-61
2022/11/16 01:30:14;;;;;;;8.07;5.15;;;;;;;10.81;100.00;99135.41;684425;28;1243;-61
2022/11/16 01:30:40;;;;;;;8.05;5.47;;;;;;;10.80;100.00;99133.72;681147;28;4414;-61
2022/11/16 01:31:03;;;;;;;8.02;5.40;;;;;;;10.78;100.00;99132.88;677562;29;1327;-61
2022/11/16 01:31:26;;;;;;;8.13;5.32;;;;;;;10.75;100.00;99130.38;681573;29;1272;-61
2022/11/16 01:31:47;;;;;;;8.17;5.23;;;;;;;10.74;100.00;99133.88;683670;28;1266;-61
2022/11/16 01:32:07;;;;;;;7.18;5.15;;;;;;;10.77;100.00;99130.31;681786;29;1312;-60
2022/11/16 01:32:28;;;;;;;6.68;5.07;;;;;;;10.73;100.00;99132.19;682009;28;1262;-61
2022/11/16 01:32:49;;;;;;;6.93;5.18;;;;;;;10.73;100.00;99130.41;682428;28;1496;-61
2022/11/16 01:33:10;;;;;;;7.35;5.28;;;;;;;10.75;100.00;99130.38;681599;28;1438;-61
2022/11/16 01:33:30;;;;;;;7.90;5.10;;;;;;;10.76;100.00;99134.69;682257;28;1601;-61
2022/11/16 01:33:51;;;;;;;6.60;5.23;;;;;;;10.80;100.00;99132.81;681745;28;4349;-61
2022/11/16 01:34:17;;;;;;;8.57;5.55;;;;;;;10.94;100.00;99124.56;681927;28;1159;-60
2022/11/16 01:34:38;;;;;;;6.68;4.95;;;;;;;10.90;100.00;99135.13;681975;29;1591;-61
2022/11/16 01:35:15;;;;;;;6.43;5.03;;;;;;;10.99;100.00;99130.50;679112;29;1493;-61
2022/11/16 01:35:35;;;;;;;7.13;4.68;;;;;;;10.99;100.00;99127.91;679402;29;1435;-60
2022/11/16 01:35:55;;;;;;;6.88;4.90;;;;;;;10.90;100.00;99127.28;679493;29;1478;-60
2022/11/16 01:36:17;;;;;;;7.93;4.97;;;;;;;10.88;100.00;99123.88;681066;28;1451;-60
2022/11/16 01:36:38;;;;;;;7.15;4.95;;;;;;;10.88;100.00;99130.84;678878;29;4575;-61
2022/11/16 01:36:59;;;;;;;6.53;4.80;;;;;;;10.86;100.00;99130.88;679242;28;1399;-61
2022/11/16 01:37:23;;;;;;;7.97;5.07;;;;;;;10.89;100.00;99132.56;681624;28;1390;-60
2022/11/16 01:37:44;;;;;;;7.53;5.20;;;;;;;10.98;100.00;99126.19;679364;28;1396;-61
2022/11/16 01:38:05;;;;;;;7.35;5.10;;;;;;;10.99;100.00;99123.50;677437;29;1220;-61
2022/11/16 01:38:27;;;;;;;7.03;5.10;;;;;;;10.92;100.00;99124.63;678298;29;1237;-61
2022/11/16 01:38:47;;;;;;;7.20;5.13;;;;;;;10.87;100.00;99123.94;681016;28;4889;-60
2022/11/16 01:39:11;;;;;;;7.22;5.40;;;;;;;10.83;100.00;99132.75;679509;29;1317;-60
2022/11/16 01:39:40;;;;;;;7.55;5.60;;;;;;;10.82;100.00;99131.88;681695;28;4652;-61
2022/11/16 01:40:02;;;;;;;6.82;5.32;;;;;;;10.79;100.00;99128.53;678455;29;1216;-61
2022/11/16 01:40:26;;;;;;;7.57;5.28;;;;;;;10.78;100.00;99129.41;681529;28;1181;-61
2022/11/16 01:40:47;;;;;;;7.13;5.30;;;;;;;10.79;100.00;99125.91;679219;29;2199;-61
2022/11/16 01:41:12;;;;;;;7.90;5.57;;;;;;;10.81;100.00;99127.56;676522;28;1460;-62
2022/11/16 01:41:33;;;;;;;8.88;5.65;;;;;;;10.76;100.00;99126.84;678073;29;2171;-61
2022/11/16 01:41:56;;;;;;;8.45;5.57;;;;;;;10.79;100.00;99126.75;678034;29;1144;-61
2022/11/16 01:42:19;;;;;;;8.10;5.67;;;;;;;10.80;100.00;99128.47;678584;29;1578;-60
2022/11/16 01:42:41;;;;;;;6.75;5.50;;;;;;;10.85;100.00;99129.16;679737;28;4383;-61
2022/11/16 01:43:02;;;;;;;6.93;5.07;;;;;;;10.83;100.00;99128.38;686089;28;1222;-61
2022/11/16 01:43:24;;;;;;;6.97;5.20;;;;;;;10.75;100.00;99129.53;678653;28;1557;-61